sensor_id;sensor_type;location;lat;lon;timestamp;P1;durP1;ratioP1;P2;durP2;ratioP2
59846;SDS011;45728;48.788;2.302;2023-02-28T00:01:11;11.13;;;6.63;;
59846;SDS011;45728;48.788;2.302;2023-02-28T00:03:38;10.93;;;9.90;;
59846;SDS011;45728;48.788;2.302;2023-02-28T00:06:05;13.23;;;7.18;;
59846;SDS011;45728;48.788;2.302;2023-02-28T00:08:32;11.88;;;6.70;;
59846;SDS011;45728;48.788;2.302;2023-02-28T00:11:02;11.13;;;7.97;;
59846;SDS011;45728;48.788;2.302;2023-02-28T00:13:28;9.57;;;6.13;;
59846;SDS011;45728;48.788;2.302;2023-02-28T00:16:01;10.13;;;6.25;;
59846;SDS011;45728;48.788;2.302;2023-02-28T00:18:29;10.02;;;6.95;;
59846;SDS011;45728;48.788;2.302;2023-02-28T00:20:56;10.30;;;5.78;;
59846;SDS011;45728;48.788;2.302;2023-02-28T00:23:23;12.82;;;6.28;;
59846;SDS011;45728;48.788;2.302;2023-02-28T00:25:50;9.40;;;6.68;;
59846;SDS011;45728;48.788;2.302;2023-02-28T00:28:16;11.65;;;6.95;;
59846;SDS011;45728;48.788;2.302;2023-02-28T00:30:43;11.90;;;5.97;;
59846;SDS011;45728;48.788;2.302;2023-02-28T00:33:09;12.32;;;6.30;;
59846;SDS011;45728;48.788;2.302;2023-02-28T00:35:35;9.93;;;6.55;;
59846;SDS011;45728;48.788;2.302;2023-02-28T00:38:02;11.55;;;5.90;;
59846;SDS011;45728;48.788;2.302;2023-02-28T00:40:28;8.88;;;6.05;;
59846;SDS011;45728;48.788;2.302;2023-02-28T00:42:54;8.23;;;6.20;;
59846;SDS011;45728;48.788;2.302;2023-02-28T00:45:21;8.63;;;5.88;;
59846;SDS011;45728;48.788;2.302;2023-02-28T00:47:47;9.60;;;6.00;;
59846;SDS011;45728;48.788;2.302;2023-02-28T00:50:18;8.43;;;5.75;;
59846;SDS011;45728;48.788;2.302;2023-02-28T00:52:45;8.45;;;7.65;;
59846;SDS011;45728;48.788;2.302;2023-02-28T00:55:12;9.52;;;5.90;;
59846;SDS011;45728;48.788;2.302;2023-02-28T00:57:38;7.78;;;4.55;;
59846;SDS011;45728;48.788;2.302;2023-02-28T01:00:06;12.05;;;6.22;;
59846;SDS011;45728;48.788;2.302;2023-02-28T01:02:33;7.70;;;5.03;;
59846;SDS011;45728;48.788;2.302;2023-02-28T01:04:59;9.45;;;8.40;;
59846;SDS011;45728;48.788;2.302;2023-02-28T01:07:25;12.32;;;6.30;;
59846;SDS011;45728;48.788;2.302;2023-02-28T01:09:51;7.88;;;5.93;;
59846;SDS011;45728;48.788;2.302;2023-02-28T01:12:17;9.32;;;5.40;;
59846;SDS011;45728;48.788;2.302;2023-02-28T01:14:43;9.07;;;5.38;;
59846;SDS011;45728;48.788;2.302;2023-02-28T01:17:09;7.07;;;5.20;;
59846;SDS011;45728;48.788;2.302;2023-02-28T01:19:35;8.43;;;5.53;;
59846;SDS011;45728;48.788;2.302;2023-02-28T01:22:02;8.45;;;5.60;;
59846;SDS011;45728;48.788;2.302;2023-02-28T01:24:30;7.10;;;5.30;;
59846;SDS011;45728;48.788;2.302;2023-02-28T01:26:57;9.40;;;5.20;;
59846;SDS011;45728;48.788;2.302;2023-02-28T01:29:23;7.95;;;4.90;;
59846;SDS011;45728;48.788;2.302;2023-02-28T01:31:49;8.88;;;4.93;;
59846;SDS011;45728;48.788;2.302;2023-02-28T01:34:16;6.55;;;5.18;;
59846;SDS011;45728;48.788;2.302;2023-02-28T01:36:44;9.88;;;4.68;;
59846;SDS011;45728;48.788;2.302;2023-02-28T01:39:11;7.95;;;4.95;;
59846;SDS011;45728;48.788;2.302;2023-02-28T01:41:38;7.18;;;4.57;;
59846;SDS011;45728;48.788;2.302;2023-02-28T01:44:06;9.13;;;4.72;;
59846;SDS011;45728;48.788;2.302;2023-02-28T01:46:33;10.48;;;5.18;;
59846;SDS011;45728;48.788;2.302;2023-02-28T01:49:13;7.00;;;4.57;;
59846;SDS011;45728;48.788;2.302;2023-02-28T01:51:52;6.72;;;4.00;;
59846;SDS011;45728;48.788;2.302;2023-02-28T01:54:26;9.15;;;4.53;;
59846;SDS011;45728;48.788;2.302;2023-02-28T01:56:57;7.95;;;4.88;;
59846;SDS011;45728;48.788;2.302;2023-02-28T01:59:33;5.47;;;4.57;;
59846;SDS011;45728;48.788;2.302;2023-02-28T02:02:05;10.02;;;5.00;;
59846;SDS011;45728;48.788;2.302;2023-02-28T02:04:33;8.50;;;5.07;;
59846;SDS011;45728;48.788;2.302;2023-02-28T02:07:06;8.63;;;4.93;;
59846;SDS011;45728;48.788;2.302;2023-02-28T02:09:33;7.05;;;4.68;;
59846;SDS011;45728;48.788;2.302;2023-02-28T02:11:59;8.43;;;5.55;;
59846;SDS011;45728;48.788;2.302;2023-02-28T02:14:43;6.60;;;4.63;;
59846;SDS011;45728;48.788;2.302;2023-02-28T02:20:16;9.38;;;4.53;;
59846;SDS011;45728;48.788;2.302;2023-02-28T02:25:33;6.57;;;4.32;;
59846;SDS011;45728;48.788;2.302;2023-02-28T02:39:36;7.28;;;4.53;;
59846;SDS011;45728;48.788;2.302;2023-02-28T02:41:52;10.15;;;4.82;;
59846;SDS011;45728;48.788;2.302;2023-02-28T02:44:27;9.40;;;4.68;;
59846;SDS011;45728;48.788;2.302;2023-02-28T02:47:08;7.18;;;4.10;;
59846;SDS011;45728;48.788;2.302;2023-02-28T02:52:08;6.63;;;4.25;;
59846;SDS011;45728;48.788;2.302;2023-02-28T02:54:38;6.22;;;3.83;;
59846;SDS011;45728;48.788;2.302;2023-02-28T02:57:08;8.73;;;4.40;;
59846;SDS011;45728;48.788;2.302;2023-02-28T02:59:40;7.30;;;4.13;;
59846;SDS011;45728;48.788;2.302;2023-02-28T03:02:08;7.78;;;4.13;;
59846;SDS011;45728;48.788;2.302;2023-02-28T03:04:40;10.98;;;4.78;;
59846;SDS011;45728;48.788;2.302;2023-02-28T03:07:11;6.55;;;4.00;;
59846;SDS011;45728;48.788;2.302;2023-02-28T03:09:37;5.97;;;4.05;;
59846;SDS011;45728;48.788;2.302;2023-02-28T03:12:04;7.35;;;4.30;;
59846;SDS011;45728;48.788;2.302;2023-02-28T03:17:39;6.90;;;4.22;;
59846;SDS011;45728;48.788;2.302;2023-02-28T03:20:17;5.30;;;4.10;;
59846;SDS011;45728;48.788;2.302;2023-02-28T03:23:13;9.45;;;4.25;;
59846;SDS011;45728;48.788;2.302;2023-02-28T03:31:06;6.03;;;3.58;;
59846;SDS011;45728;48.788;2.302;2023-02-28T03:33:39;8.27;;;3.83;;
59846;SDS011;45728;48.788;2.302;2023-02-28T03:36:11;9.57;;;3.72;;
59846;SDS011;45728;48.788;2.302;2023-02-28T03:38:41;7.63;;;4.30;;
59846;SDS011;45728;48.788;2.302;2023-02-28T03:43:45;6.68;;;3.40;;
59846;SDS011;45728;48.788;2.302;2023-02-28T03:46:16;7.80;;;3.72;;
59846;SDS011;45728;48.788;2.302;2023-02-28T03:49:11;5.30;;;3.65;;
59846;SDS011;45728;48.788;2.302;2023-02-28T03:51:41;5.00;;;3.13;;
59846;SDS011;45728;48.788;2.302;2023-02-28T03:54:09;5.07;;;3.70;;
59846;SDS011;45728;48.788;2.302;2023-02-28T03:56:48;5.18;;;3.58;;
59846;SDS011;45728;48.788;2.302;2023-02-28T03:59:24;4.75;;;3.90;;
59846;SDS011;45728;48.788;2.302;2023-02-28T04:01:55;5.95;;;3.38;;
59846;SDS011;45728;48.788;2.302;2023-02-28T04:04:23;5.35;;;3.53;;
59846;SDS011;45728;48.788;2.302;2023-02-28T04:06:50;4.90;;;3.50;;
59846;SDS011;45728;48.788;2.302;2023-02-28T04:09:18;7.53;;;4.03;;
59846;SDS011;45728;48.788;2.302;2023-02-28T04:11:49;5.65;;;3.88;;
59846;SDS011;45728;48.788;2.302;2023-02-28T04:14:17;5.57;;;4.07;;
59846;SDS011;45728;48.788;2.302;2023-02-28T04:16:44;4.55;;;3.38;;
59846;SDS011;45728;48.788;2.302;2023-02-28T04:19:11;7.18;;;4.10;;
59846;SDS011;45728;48.788;2.302;2023-02-28T04:21:39;5.20;;;3.85;;
59846;SDS011;45728;48.788;2.302;2023-02-28T04:24:26;6.68;;;4.22;;
59846;SDS011;45728;48.788;2.302;2023-02-28T04:26:53;5.10;;;3.67;;
59846;SDS011;45728;48.788;2.302;2023-02-28T04:29:22;6.65;;;4.13;;
59846;SDS011;45728;48.788;2.302;2023-02-28T04:31:54;6.13;;;4.15;;
59846;SDS011;45728;48.788;2.302;2023-02-28T04:34:23;6.93;;;3.47;;
59846;SDS011;45728;48.788;2.302;2023-02-28T04:36:49;5.03;;;3.97;;
59846;SDS011;45728;48.788;2.302;2023-02-28T04:39:16;7.80;;;3.80;;
59846;SDS011;45728;48.788;2.302;2023-02-28T04:41:44;6.22;;;3.33;;
59846;SDS011;45728;48.788;2.302;2023-02-28T04:44:11;4.70;;;3.83;;
59846;SDS011;45728;48.788;2.302;2023-02-28T04:46:37;9.93;;;3.65;;
59846;SDS011;45728;48.788;2.302;2023-02-28T04:49:03;6.50;;;3.97;;
59846;SDS011;45728;48.788;2.302;2023-02-28T04:51:29;5.65;;;3.53;;
59846;SDS011;45728;48.788;2.302;2023-02-28T04:53:55;7.32;;;3.70;;
59846;SDS011;45728;48.788;2.302;2023-02-28T04:56:22;6.38;;;3.35;;
59846;SDS011;45728;48.788;2.302;2023-02-28T04:58:48;7.05;;;3.42;;
59846;SDS011;45728;48.788;2.302;2023-02-28T05:01:18;5.70;;;3.45;;
59846;SDS011;45728;48.788;2.302;2023-02-28T05:06:12;8.32;;;4.03;;
59846;SDS011;45728;48.788;2.302;2023-02-28T05:08:39;12.93;;;3.95;;
59846;SDS011;45728;48.788;2.302;2023-02-28T05:11:07;6.22;;;3.72;;
59846;SDS011;45728;48.788;2.302;2023-02-28T05:13:39;7.32;;;4.05;;
59846;SDS011;45728;48.788;2.302;2023-02-28T05:16:05;5.60;;;3.60;;
59846;SDS011;45728;48.788;2.302;2023-02-28T05:18:31;5.32;;;3.10;;
59846;SDS011;45728;48.788;2.302;2023-02-28T05:20:57;7.05;;;3.35;;
59846;SDS011;45728;48.788;2.302;2023-02-28T05:23:24;6.32;;;3.45;;
59846;SDS011;45728;48.788;2.302;2023-02-28T05:25:50;6.88;;;3.38;;
59846;SDS011;45728;48.788;2.302;2023-02-28T05:28:17;5.05;;;3.28;;
59846;SDS011;45728;48.788;2.302;2023-02-28T05:30:44;3.67;;;2.92;;
59846;SDS011;45728;48.788;2.302;2023-02-28T05:33:11;6.22;;;3.28;;
59846;SDS011;45728;48.788;2.302;2023-02-28T05:35:38;5.50;;;3.20;;
59846;SDS011;45728;48.788;2.302;2023-02-28T05:38:05;5.95;;;3.30;;
59846;SDS011;45728;48.788;2.302;2023-02-28T05:40:32;4.70;;;3.35;;
59846;SDS011;45728;48.788;2.302;2023-02-28T05:42:58;5.72;;;3.60;;
59846;SDS011;45728;48.788;2.302;2023-02-28T05:45:24;6.97;;;4.07;;
59846;SDS011;45728;48.788;2.302;2023-02-28T05:47:53;9.18;;;3.70;;
59846;SDS011;45728;48.788;2.302;2023-02-28T05:50:19;7.20;;;4.03;;
59846;SDS011;45728;48.788;2.302;2023-02-28T05:52:52;6.80;;;4.03;;
59846;SDS011;45728;48.788;2.302;2023-02-28T05:55:18;8.05;;;4.32;;
59846;SDS011;45728;48.788;2.302;2023-02-28T05:57:44;8.43;;;4.30;;
59846;SDS011;45728;48.788;2.302;2023-02-28T06:00:11;7.93;;;5.03;;
59846;SDS011;45728;48.788;2.302;2023-02-28T06:02:40;8.05;;;4.72;;
59846;SDS011;45728;48.788;2.302;2023-02-28T06:05:16;10.85;;;4.90;;
59846;SDS011;45728;48.788;2.302;2023-02-28T06:07:43;9.90;;;4.55;;
59846;SDS011;45728;48.788;2.302;2023-02-28T06:10:10;9.20;;;4.75;;
59846;SDS011;45728;48.788;2.302;2023-02-28T06:12:37;7.85;;;4.95;;
59846;SDS011;45728;48.788;2.302;2023-02-28T06:15:03;8.82;;;5.18;;
59846;SDS011;45728;48.788;2.302;2023-02-28T06:17:30;11.23;;;5.30;;
59846;SDS011;45728;48.788;2.302;2023-02-28T06:19:56;8.60;;;5.45;;
59846;SDS011;45728;48.788;2.302;2023-02-28T06:22:22;10.55;;;5.03;;
59846;SDS011;45728;48.788;2.302;2023-02-28T06:24:48;10.52;;;4.85;;
59846;SDS011;45728;48.788;2.302;2023-02-28T06:27:14;13.00;;;7.13;;
59846;SDS011;45728;48.788;2.302;2023-02-28T06:29:40;14.98;;;6.97;;
59846;SDS011;45728;48.788;2.302;2023-02-28T06:32:06;10.70;;;6.00;;
59846;SDS011;45728;48.788;2.302;2023-02-28T06:34:32;13.25;;;6.97;;
59846;SDS011;45728;48.788;2.302;2023-02-28T06:36:59;12.40;;;6.55;;
59846;SDS011;45728;48.788;2.302;2023-02-28T06:39:29;13.82;;;6.85;;
59846;SDS011;45728;48.788;2.302;2023-02-28T06:41:56;10.48;;;6.55;;
59846;SDS011;45728;48.788;2.302;2023-02-28T06:44:23;12.85;;;6.88;;
59846;SDS011;45728;48.788;2.302;2023-02-28T06:46:49;11.90;;;6.80;;
59846;SDS011;45728;48.788;2.302;2023-02-28T06:49:15;13.90;;;7.80;;
59846;SDS011;45728;48.788;2.302;2023-02-28T06:51:43;13.75;;;7.97;;
59846;SDS011;45728;48.788;2.302;2023-02-28T06:54:13;14.05;;;7.28;;
59846;SDS011;45728;48.788;2.302;2023-02-28T06:56:39;16.50;;;7.88;;
59846;SDS011;45728;48.788;2.302;2023-02-28T06:59:05;14.93;;;7.40;;
59846;SDS011;45728;48.788;2.302;2023-02-28T07:01:32;14.95;;;8.65;;
59846;SDS011;45728;48.788;2.302;2023-02-28T07:03:58;14.07;;;8.75;;
59846;SDS011;45728;48.788;2.302;2023-02-28T07:06:25;16.35;;;9.35;;
59846;SDS011;45728;48.788;2.302;2023-02-28T07:08:52;15.65;;;9.00;;
59846;SDS011;45728;48.788;2.302;2023-02-28T07:11:19;17.52;;;9.10;;
59846;SDS011;45728;48.788;2.302;2023-02-28T07:13:48;16.20;;;9.13;;
59846;SDS011;45728;48.788;2.302;2023-02-28T07:16:16;18.45;;;9.95;;
59846;SDS011;45728;48.788;2.302;2023-02-28T07:18:42;18.25;;;9.65;;
59846;SDS011;45728;48.788;2.302;2023-02-28T07:21:08;20.67;;;10.27;;
59846;SDS011;45728;48.788;2.302;2023-02-28T07:23:35;14.80;;;8.30;;
59846;SDS011;45728;48.788;2.302;2023-02-28T07:26:04;18.02;;;9.45;;
59846;SDS011;45728;48.788;2.302;2023-02-28T07:28:36;21.23;;;10.65;;
59846;SDS011;45728;48.788;2.302;2023-02-28T07:31:04;16.65;;;9.45;;
59846;SDS011;45728;48.788;2.302;2023-02-28T07:33:31;17.30;;;9.57;;
59846;SDS011;45728;48.788;2.302;2023-02-28T07:36:06;19.80;;;10.40;;
59846;SDS011;45728;48.788;2.302;2023-02-28T07:38:41;21.50;;;10.73;;
59846;SDS011;45728;48.788;2.302;2023-02-28T07:41:09;20.25;;;10.98;;
59846;SDS011;45728;48.788;2.302;2023-02-28T07:43:35;18.40;;;12.43;;
59846;SDS011;45728;48.788;2.302;2023-02-28T07:46:05;21.23;;;11.38;;
59846;SDS011;45728;48.788;2.302;2023-02-28T07:48:33;18.65;;;9.98;;
59846;SDS011;45728;48.788;2.302;2023-02-28T07:51:00;22.02;;;10.05;;
59846;SDS011;45728;48.788;2.302;2023-02-28T07:53:28;18.48;;;10.20;;
59846;SDS011;45728;48.788;2.302;2023-02-28T07:55:58;17.58;;;8.77;;
59846;SDS011;45728;48.788;2.302;2023-02-28T07:58:26;19.25;;;10.25;;
59846;SDS011;45728;48.788;2.302;2023-02-28T08:00:53;19.63;;;9.63;;
59846;SDS011;45728;48.788;2.302;2023-02-28T08:03:20;19.98;;;10.93;;
59846;SDS011;45728;48.788;2.302;2023-02-28T08:05:47;14.25;;;8.68;;
59846;SDS011;45728;48.788;2.302;2023-02-28T08:08:14;18.48;;;10.10;;
59846;SDS011;45728;48.788;2.302;2023-02-28T08:10:41;16.58;;;9.40;;
59846;SDS011;45728;48.788;2.302;2023-02-28T08:13:07;20.90;;;9.88;;
59846;SDS011;45728;48.788;2.302;2023-02-28T08:15:33;21.15;;;9.95;;
59846;SDS011;45728;48.788;2.302;2023-02-28T08:17:59;19.83;;;9.65;;
59846;SDS011;45728;48.788;2.302;2023-02-28T08:20:25;19.02;;;11.32;;
59846;SDS011;45728;48.788;2.302;2023-02-28T08:22:52;16.90;;;9.15;;
59846;SDS011;45728;48.788;2.302;2023-02-28T08:25:18;16.30;;;9.77;;
59846;SDS011;45728;48.788;2.302;2023-02-28T08:27:45;19.88;;;10.10;;
59846;SDS011;45728;48.788;2.302;2023-02-28T08:30:11;22.17;;;11.80;;
59846;SDS011;45728;48.788;2.302;2023-02-28T08:32:39;14.15;;;7.78;;
59846;SDS011;45728;48.788;2.302;2023-02-28T08:35:06;20.58;;;10.63;;
59846;SDS011;45728;48.788;2.302;2023-02-28T08:37:32;15.40;;;8.40;;
59846;SDS011;45728;48.788;2.302;2023-02-28T08:39:58;23.73;;;11.15;;
59846;SDS011;45728;48.788;2.302;2023-02-28T08:42:24;21.85;;;10.75;;
59846;SDS011;45728;48.788;2.302;2023-02-28T08:44:50;20.70;;;12.23;;
59846;SDS011;45728;48.788;2.302;2023-02-28T08:47:16;22.02;;;10.48;;
59846;SDS011;45728;48.788;2.302;2023-02-28T08:49:43;11.60;;;6.40;;
59846;SDS011;45728;48.788;2.302;2023-02-28T08:52:09;13.38;;;8.98;;
59846;SDS011;45728;48.788;2.302;2023-02-28T08:54:35;19.55;;;10.27;;
59846;SDS011;45728;48.788;2.302;2023-02-28T08:57:02;16.73;;;9.57;;
59846;SDS011;45728;48.788;2.302;2023-02-28T08:59:28;20.20;;;9.05;;
59846;SDS011;45728;48.788;2.302;2023-02-28T09:01:55;15.27;;;10.57;;
59846;SDS011;45728;48.788;2.302;2023-02-28T09:04:21;17.67;;;9.63;;
59846;SDS011;45728;48.788;2.302;2023-02-28T09:06:47;13.82;;;8.75;;
59846;SDS011;45728;48.788;2.302;2023-02-28T09:09:14;15.98;;;7.82;;
59846;SDS011;45728;48.788;2.302;2023-02-28T09:11:41;13.85;;;8.73;;
59846;SDS011;45728;48.788;2.302;2023-02-28T09:14:07;12.23;;;7.05;;
59846;SDS011;45728;48.788;2.302;2023-02-28T09:16:34;18.45;;;9.05;;
59846;SDS011;45728;48.788;2.302;2023-02-28T09:19:00;16.90;;;13.57;;
59846;SDS011;45728;48.788;2.302;2023-02-28T09:21:27;15.02;;;9.30;;
59846;SDS011;45728;48.788;2.302;2023-02-28T09:23:53;15.25;;;8.52;;
59846;SDS011;45728;48.788;2.302;2023-02-28T09:26:21;14.02;;;8.80;;
59846;SDS011;45728;48.788;2.302;2023-02-28T09:28:49;15.20;;;9.52;;
59846;SDS011;45728;48.788;2.302;2023-02-28T09:31:18;14.55;;;8.32;;
59846;SDS011;45728;48.788;2.302;2023-02-28T09:33:50;14.65;;;12.73;;
59846;SDS011;45728;48.788;2.302;2023-02-28T09:36:18;12.65;;;6.20;;
59846;SDS011;45728;48.788;2.302;2023-02-28T09:38:45;13.63;;;12.00;;
59846;SDS011;45728;48.788;2.302;2023-02-28T09:43:46;12.63;;;7.40;;
59846;SDS011;45728;48.788;2.302;2023-02-28T09:49:00;15.00;;;11.50;;
59846;SDS011;45728;48.788;2.302;2023-02-28T09:51:36;14.38;;;11.35;;
59846;SDS011;45728;48.788;2.302;2023-02-28T09:54:11;17.25;;;10.60;;
59846;SDS011;45728;48.788;2.302;2023-02-28T09:56:45;15.70;;;11.10;;
59846;SDS011;45728;48.788;2.302;2023-02-28T10:04:43;14.70;;;10.85;;
59846;SDS011;45728;48.788;2.302;2023-02-28T10:09:54;13.25;;;8.55;;
59846;SDS011;45728;48.788;2.302;2023-02-28T10:12:24;12.13;;;10.50;;
59846;SDS011;45728;48.788;2.302;2023-02-28T10:14:53;11.02;;;9.93;;
59846;SDS011;45728;48.788;2.302;2023-02-28T10:17:24;12.80;;;10.77;;
59846;SDS011;45728;48.788;2.302;2023-02-28T10:24:53;12.50;;;11.20;;
59846;SDS011;45728;48.788;2.302;2023-02-28T10:27:22;10.40;;;8.88;;
59846;SDS011;45728;48.788;2.302;2023-02-28T10:29:51;13.30;;;9.40;;
59846;SDS011;45728;48.788;2.302;2023-02-28T10:32:20;10.60;;;8.57;;
59846;SDS011;45728;48.788;2.302;2023-02-28T10:34:55;9.68;;;8.48;;
59846;SDS011;45728;48.788;2.302;2023-02-28T10:37:23;12.88;;;9.15;;
59846;SDS011;45728;48.788;2.302;2023-02-28T10:39:49;9.80;;;8.77;;
59846;SDS011;45728;48.788;2.302;2023-02-28T10:42:34;9.63;;;7.55;;
59846;SDS011;45728;48.788;2.302;2023-02-28T10:45:05;14.00;;;7.70;;
59846;SDS011;45728;48.788;2.302;2023-02-28T10:47:49;10.50;;;7.93;;
59846;SDS011;45728;48.788;2.302;2023-02-28T10:50:32;12.85;;;9.10;;
59846;SDS011;45728;48.788;2.302;2023-02-28T10:53:14;8.30;;;4.90;;
59846;SDS011;45728;48.788;2.302;2023-02-28T10:55:41;8.10;;;6.97;;
59846;SDS011;45728;48.788;2.302;2023-02-28T10:58:20;8.00;;;7.22;;
59846;SDS011;45728;48.788;2.302;2023-02-28T11:00:48;9.10;;;7.43;;
59846;SDS011;45728;48.788;2.302;2023-02-28T11:03:29;8.77;;;6.82;;
59846;SDS011;45728;48.788;2.302;2023-02-28T11:05:58;7.80;;;7.00;;
59846;SDS011;45728;48.788;2.302;2023-02-28T11:08:29;6.18;;;3.83;;
59846;SDS011;45728;48.788;2.302;2023-02-28T11:10:59;8.00;;;3.10;;
59846;SDS011;45728;48.788;2.302;2023-02-28T11:13:32;5.60;;;5.10;;
59846;SDS011;45728;48.788;2.302;2023-02-28T11:16:00;6.60;;;5.95;;
59846;SDS011;45728;48.788;2.302;2023-02-28T11:21:07;6.57;;;5.88;;
59846;SDS011;45728;48.788;2.302;2023-02-28T11:23:36;6.35;;;5.10;;
59846;SDS011;45728;48.788;2.302;2023-02-28T11:26:05;6.10;;;5.47;;
59846;SDS011;45728;48.788;2.302;2023-02-28T11:28:36;7.25;;;5.90;;
59846;SDS011;45728;48.788;2.302;2023-02-28T11:38:53;8.27;;;3.85;;
59846;SDS011;45728;48.788;2.302;2023-02-28T11:44:05;9.10;;;6.18;;
59846;SDS011;45728;48.788;2.302;2023-02-28T11:46:37;7.80;;;6.20;;
59846;SDS011;45728;48.788;2.302;2023-02-28T11:51:59;7.30;;;6.60;;
59846;SDS011;45728;48.788;2.302;2023-02-28T12:02:50;7.05;;;5.28;;
59846;SDS011;45728;48.788;2.302;2023-02-28T12:19:18;5.80;;;5.30;;
59846;SDS011;45728;48.788;2.302;2023-02-28T12:27:17;6.32;;;5.32;;
59846;SDS011;45728;48.788;2.302;2023-02-28T12:29:48;6.20;;;5.60;;
59846;SDS011;45728;48.788;2.302;2023-02-28T12:32:32;6.70;;;5.38;;
59846;SDS011;45728;48.788;2.302;2023-02-28T12:35:03;7.43;;;4.18;;
59846;SDS011;45728;48.788;2.302;2023-02-28T12:37:38;6.63;;;5.70;;
59846;SDS011;45728;48.788;2.302;2023-02-28T12:40:16;6.53;;;5.85;;
59846;SDS011;45728;48.788;2.302;2023-02-28T12:42:51;7.72;;;6.03;;
59846;SDS011;45728;48.788;2.302;2023-02-28T12:45:23;9.82;;;6.07;;
59846;SDS011;45728;48.788;2.302;2023-02-28T12:48:08;9.98;;;5.95;;
59846;SDS011;45728;48.788;2.302;2023-02-28T12:50:39;13.65;;;4.75;;
59846;SDS011;45728;48.788;2.302;2023-02-28T12:53:07;7.88;;;5.60;;
59846;SDS011;45728;48.788;2.302;2023-02-28T12:55:56;5.90;;;5.32;;
59846;SDS011;45728;48.788;2.302;2023-02-28T13:09:31;6.25;;;5.50;;
59846;SDS011;45728;48.788;2.302;2023-02-28T13:11:57;5.32;;;3.72;;
59846;SDS011;45728;48.788;2.302;2023-02-28T13:14:25;6.32;;;5.38;;
59846;SDS011;45728;48.788;2.302;2023-02-28T13:22:05;5.88;;;5.05;;
59846;SDS011;45728;48.788;2.302;2023-02-28T13:27:21;6.35;;;3.92;;
59846;SDS011;45728;48.788;2.302;2023-02-28T13:29:50;5.53;;;5.00;;
59846;SDS011;45728;48.788;2.302;2023-02-28T13:32:28;5.78;;;5.20;;
59846;SDS011;45728;48.788;2.302;2023-02-28T13:39:51;5.60;;;4.78;;
59846;SDS011;45728;48.788;2.302;2023-02-28T13:42:23;5.82;;;4.00;;
59846;SDS011;45728;48.788;2.302;2023-02-28T13:47:33;7.68;;;3.97;;
59846;SDS011;45728;48.788;2.302;2023-02-28T14:01:11;6.78;;;5.50;;
59846;SDS011;45728;48.788;2.302;2023-02-28T14:04:03;8.90;;;5.55;;
59846;SDS011;45728;48.788;2.302;2023-02-28T14:06:50;6.68;;;4.18;;
59846;SDS011;45728;48.788;2.302;2023-02-28T14:11:44;5.95;;;5.13;;
59846;SDS011;45728;48.788;2.302;2023-02-28T14:17:12;5.35;;;4.40;;
59846;SDS011;45728;48.788;2.302;2023-02-28T14:19:43;5.30;;;4.32;;
59846;SDS011;45728;48.788;2.302;2023-02-28T14:22:22;8.48;;;5.03;;
59846;SDS011;45728;48.788;2.302;2023-02-28T14:33:31;5.40;;;4.57;;
59846;SDS011;45728;48.788;2.302;2023-02-28T14:36:13;5.53;;;5.03;;
59846;SDS011;45728;48.788;2.302;2023-02-28T14:43:52;4.95;;;4.35;;
59846;SDS011;45728;48.788;2.302;2023-02-28T14:46:21;8.07;;;4.70;;
59846;SDS011;45728;48.788;2.302;2023-02-28T14:48:50;4.07;;;3.33;;
59846;SDS011;45728;48.788;2.302;2023-02-28T14:51:21;4.97;;;4.55;;
59846;SDS011;45728;48.788;2.302;2023-02-28T14:53:52;5.57;;;4.80;;
59846;SDS011;45728;48.788;2.302;2023-02-28T14:56:26;5.57;;;5.07;;
59846;SDS011;45728;48.788;2.302;2023-02-28T15:02:24;5.50;;;4.45;;
59846;SDS011;45728;48.788;2.302;2023-02-28T15:04:55;6.10;;;4.63;;
59846;SDS011;45728;48.788;2.302;2023-02-28T15:07:26;5.70;;;4.40;;
59846;SDS011;45728;48.788;2.302;2023-02-28T15:12:36;5.10;;;4.60;;
59846;SDS011;45728;48.788;2.302;2023-02-28T15:15:05;6.38;;;4.47;;
59846;SDS011;45728;48.788;2.302;2023-02-28T15:17:33;8.40;;;4.95;;
59846;SDS011;45728;48.788;2.302;2023-02-28T15:20:00;6.07;;;4.03;;
59846;SDS011;45728;48.788;2.302;2023-02-28T15:22:28;4.93;;;4.15;;
59846;SDS011;45728;48.788;2.302;2023-02-28T15:24:59;6.70;;;4.50;;
59846;SDS011;45728;48.788;2.302;2023-02-28T15:27:30;5.07;;;4.47;;
59846;SDS011;45728;48.788;2.302;2023-02-28T15:29:59;5.07;;;4.50;;
59846;SDS011;45728;48.788;2.302;2023-02-28T15:32:33;6.72;;;4.65;;
59846;SDS011;45728;48.788;2.302;2023-02-28T15:35:17;5.43;;;4.35;;
59846;SDS011;45728;48.788;2.302;2023-02-28T15:37:56;5.75;;;4.50;;
59846;SDS011;45728;48.788;2.302;2023-02-28T15:40:28;5.28;;;4.65;;
59846;SDS011;45728;48.788;2.302;2023-02-28T15:42:59;7.85;;;5.45;;
59846;SDS011;45728;48.788;2.302;2023-02-28T15:48:20;5.80;;;4.43;;
59846;SDS011;45728;48.788;2.302;2023-02-28T15:50:51;5.25;;;4.40;;
59846;SDS011;45728;48.788;2.302;2023-02-28T15:53:30;5.55;;;4.97;;
59846;SDS011;45728;48.788;2.302;2023-02-28T15:56:03;6.45;;;4.03;;
59846;SDS011;45728;48.788;2.302;2023-02-28T15:58:32;10.65;;;4.55;;
59846;SDS011;45728;48.788;2.302;2023-02-28T16:01:07;7.85;;;4.85;;
59846;SDS011;45728;48.788;2.302;2023-02-28T16:03:47;4.72;;;3.67;;
59846;SDS011;45728;48.788;2.302;2023-02-28T16:09:05;6.50;;;4.97;;
59846;SDS011;45728;48.788;2.302;2023-02-28T16:11:35;7.72;;;5.38;;
59846;SDS011;45728;48.788;2.302;2023-02-28T16:14:04;5.80;;;4.57;;
59846;SDS011;45728;48.788;2.302;2023-02-28T16:16:31;6.20;;;5.00;;
59846;SDS011;45728;48.788;2.302;2023-02-28T16:18:58;5.30;;;4.80;;
59846;SDS011;45728;48.788;2.302;2023-02-28T16:21:24;5.75;;;3.25;;
59846;SDS011;45728;48.788;2.302;2023-02-28T16:23:51;5.13;;;4.57;;
59846;SDS011;45728;48.788;2.302;2023-02-28T16:26:21;5.90;;;4.05;;
59846;SDS011;45728;48.788;2.302;2023-02-28T16:28:49;5.38;;;4.50;;
59846;SDS011;45728;48.788;2.302;2023-02-28T16:31:17;4.43;;;4.03;;
59846;SDS011;45728;48.788;2.302;2023-02-28T16:33:43;4.72;;;4.20;;
59846;SDS011;45728;48.788;2.302;2023-02-28T16:36:14;9.82;;;5.22;;
59846;SDS011;45728;48.788;2.302;2023-02-28T16:38:46;4.70;;;4.20;;
59846;SDS011;45728;48.788;2.302;2023-02-28T16:41:13;4.70;;;4.22;;
59846;SDS011;45728;48.788;2.302;2023-02-28T16:43:47;4.82;;;4.35;;
59846;SDS011;45728;48.788;2.302;2023-02-28T16:46:16;9.05;;;4.85;;
59846;SDS011;45728;48.788;2.302;2023-02-28T16:48:46;4.78;;;3.28;;
59846;SDS011;45728;48.788;2.302;2023-02-28T16:51:16;5.43;;;4.57;;
59846;SDS011;45728;48.788;2.302;2023-02-28T16:53:43;4.80;;;4.40;;
59846;SDS011;45728;48.788;2.302;2023-02-28T16:56:17;5.35;;;4.75;;
59846;SDS011;45728;48.788;2.302;2023-02-28T16:58:50;6.00;;;5.47;;
59846;SDS011;45728;48.788;2.302;2023-02-28T17:01:17;5.65;;;5.00;;
59846;SDS011;45728;48.788;2.302;2023-02-28T17:06:17;5.93;;;3.75;;
59846;SDS011;45728;48.788;2.302;2023-02-28T17:08:48;7.05;;;5.20;;
59846;SDS011;45728;48.788;2.302;2023-02-28T17:11:15;4.97;;;4.50;;
59846;SDS011;45728;48.788;2.302;2023-02-28T17:13:42;5.07;;;3.55;;
59846;SDS011;45728;48.788;2.302;2023-02-28T17:16:20;5.68;;;5.03;;
59846;SDS011;45728;48.788;2.302;2023-02-28T17:18:50;7.75;;;3.65;;
59846;SDS011;45728;48.788;2.302;2023-02-28T17:21:17;6.85;;;5.07;;
59846;SDS011;45728;48.788;2.302;2023-02-28T17:23:44;7.68;;;4.18;;
59846;SDS011;45728;48.788;2.302;2023-02-28T17:26:17;8.13;;;4.32;;
59846;SDS011;45728;48.788;2.302;2023-02-28T17:28:50;5.05;;;4.55;;
59846;SDS011;45728;48.788;2.302;2023-02-28T17:31:17;6.55;;;4.82;;
59846;SDS011;45728;48.788;2.302;2023-02-28T17:33:44;5.78;;;3.65;;
59846;SDS011;45728;48.788;2.302;2023-02-28T17:36:13;10.27;;;3.95;;
59846;SDS011;45728;48.788;2.302;2023-02-28T17:38:41;5.13;;;3.55;;
59846;SDS011;45728;48.788;2.302;2023-02-28T17:41:09;4.93;;;4.00;;
59846;SDS011;45728;48.788;2.302;2023-02-28T17:43:36;4.95;;;3.38;;